Time;durP1;ratioP1;P1;durP2;ratioP2;P2;SDS_P1;SDS_P2;PMS_P1;PMS_P2;Temp;Humidity;BMP_temperature;BMP_pressure;BME280_temperature;BME280_humidity;BME280_pressure;Samples;Min_cycle;Max_cycle;Signal;HPM_P1;HPM_P2
2023/05/20 00:01:19;;;;;;;3.58;3.28;;;13.70;99.90;;;;;;5048169;28;20288;-72
2023/05/20 00:03:46;;;;;;;3.80;3.50;;;13.70;99.90;;;;;;5049049;28;20234;-71
2023/05/20 00:06:13;;;;;;;3.33;3.13;;;13.70;99.90;;;;;;5042754;28;20237;-71
2023/05/20 00:08:40;;;;;;;3.63;3.33;;;13.70;99.90;;;;;;5051322;28;20270;-72
2023/05/20 00:11:08;;;;;;;3.67;3.38;;;13.60;99.90;;;;;;5047029;28;20214;-71
2023/05/20 00:13:35;;;;;;;3.35;3.10;;;13.70;99.90;;;;;;5049946;28;20237;-72
2023/05/20 00:16:02;;;;;;;3.28;3.00;;;13.70;99.90;;;;;;5052481;28;20202;-72
2023/05/20 00:18:29;;;;;;;3.30;3.10;;;13.60;99.90;;;;;;5053776;28;20615;-71
2023/05/20 00:20:56;;;;;;;3.17;2.97;;;13.70;99.90;;;;;;5049214;28;20198;-71
2023/05/20 00:23:23;;;;;;;3.10;2.90;;;13.70;99.90;;;;;;5052283;28;20283;-72
2023/05/20 00:25:50;;;;;;;3.22;3.03;;;13.70;99.90;;;;;;5049504;28;20279;-72
2023/05/20 00:28:19;;;;;;;3.70;3.38;;;13.70;99.90;;;;;;5047777;28;20209;-71
2023/05/20 00:30:46;;;;;;;4.03;3.72;;;13.70;99.90;;;;;;5052176;28;20233;-72
2023/05/20 00:33:13;;;;;;;4.00;3.70;;;13.70;99.90;;;;;;5052890;28;20214;-72
2023/05/20 00:35:40;;;;;;;4.30;3.90;;;13.70;99.90;;;;;;5053724;28;20284;-72
2023/05/20 00:38:07;;;;;;;4.00;3.70;;;13.60;99.90;;;;;;5051616;28;20195;-71
2023/05/20 00:40:34;;;;;;;3.42;3.20;;;13.60;99.90;;;;;;5051250;28;20198;-73
2023/05/20 00:43:01;;;;;;;4.03;3.72;;;13.60;99.90;;;;;;5044600;28;20209;-72
2023/05/20 00:45:30;;;;;;;3.85;3.55;;;13.60;99.90;;;;;;5051612;28;21568;-72
2023/05/20 00:48:00;;;;;;;4.30;4.00;;;13.60;99.90;;;;;;5052709;28;20260;-72
2023/05/20 00:50:28;;;;;;;4.40;4.10;;;13.60;99.90;;;;;;5054476;28;20305;-73
2023/05/20 00:52:55;;;;;;;4.47;4.10;;;13.50;99.90;;;;;;5046290;28;21035;-71
2023/05/20 00:55:22;;;;;;;4.85;4.45;;;13.50;99.90;;;;;;5045953;28;20257;-71
2023/05/20 00:57:49;;;;;;;4.32;3.97;;;13.50;99.90;;;;;;5047879;28;20199;-71
2023/05/20 01:00:16;;;;;;;4.07;3.67;;;13.50;99.90;;;;;;5046809;28;20199;-72
2023/05/20 01:02:45;;;;;;;4.30;3.90;;;13.50;99.90;;;;;;5047073;28;20218;-71
2023/05/20 01:05:12;;;;;;;3.67;3.38;;;13.50;99.90;;;;;;5047842;28;20226;-71
2023/05/20 01:07:39;;;;;;;4.10;3.70;;;13.60;99.90;;;;;;5050595;28;20231;-72
2023/05/20 01:10:07;;;;;;;4.20;3.90;;;13.60;99.90;;;;;;5049015;28;20223;-72
2023/05/20 01:12:39;;;;;;;4.57;4.18;;;13.60;99.90;;;;;;5045156;28;20302;-72
2023/05/20 01:15:09;;;;;;;3.78;3.47;;;13.60;99.90;;;;;;5049070;28;20589;-72
2023/05/20 01:17:40;;;;;;;3.70;3.50;;;13.60;99.90;;;;;;5049741;28;20194;-72
2023/05/20 01:20:10;;;;;;;3.53;3.22;;;13.60;99.90;;;;;;5047393;28;20203;-71
2023/05/20 01:22:39;;;;;;;2.85;2.65;;;13.60;99.90;;;;;;5045237;28;20661;-72
2023/05/20 01:25:06;;;;;;;2.63;2.42;;;13.60;99.90;;;;;;5047896;28;20211;-72
2023/05/20 01:27:42;;;;;;;2.63;2.42;;;13.60;99.90;;;;;;5053391;28;20256;-74
2023/05/20 01:30:10;;;;;;;2.75;2.55;;;13.60;99.90;;;;;;5050094;28;20222;-74
2023/05/20 01:32:41;;;;;;;2.75;2.55;;;13.50;99.90;;;;;;5049613;28;20428;-73
2023/05/20 01:35:09;;;;;;;3.28;2.97;;;13.50;99.90;;;;;;5048521;28;20865;-71
2023/05/20 01:37:39;;;;;;;3.22;3.03;;;13.50;99.90;;;;;;5054235;28;20232;-72
2023/05/20 01:40:08;;;;;;;3.40;3.10;;;13.50;99.90;;;;;;5051574;28;20238;-73
2023/05/20 01:42:36;;;;;;;3.67;3.38;;;13.50;99.90;;;;;;5049823;28;20248;-72
2023/05/20 01:45:03;;;;;;;3.75;3.45;;;13.50;99.90;;;;;;5046844;28;20250;-72
2023/05/20 01:47:30;;;;;;;4.30;3.78;;;13.50;99.90;;;;;;5047155;28;20210;-73
2023/05/20 01:49:57;;;;;;;3.85;3.55;;;13.50;99.90;;;;;;5046828;28;20258;-71
2023/05/20 01:52:24;;;;;;;3.80;3.50;;;13.50;99.90;;;;;;5048726;28;20739;-71
2023/05/20 01:54:53;;;;;;;4.43;4.03;;;13.50;99.90;;;;;;5045921;28;20282;-71
2023/05/20 01:57:21;;;;;;;3.88;3.58;;;13.50;99.90;;;;;;5046887;28;20203;-71
2023/05/20 01:59:48;;;;;;;3.70;3.38;;;13.50;99.90;;;;;;5045927;28;20253;-72
2023/05/20 02:02:15;;;;;;;3.88;3.58;;;13.50;99.90;;;;;;5041318;28;20195;-73
2023/05/20 02:04:46;;;;;;;3.67;3.38;;;13.50;99.90;;;;;;5048761;28;20218;-71
2023/05/20 02:07:13;;;;;;;4.10;3.75;;;13.50;99.90;;;;;;5045932;28;20202;-71
2023/05/20 02:09:40;;;;;;;3.63;3.33;;;13.50;99.90;;;;;;5046539;28;20368;-71
2023/05/20 02:12:15;;;;;;;3.50;3.30;;;13.50;99.90;;;;;;5045196;28;20222;-73
2023/05/20 02:14:42;;;;;;;3.92;3.63;;;13.50;99.90;;;;;;5046498;28;20599;-71
2023/05/20 02:17:09;;;;;;;3.20;3.00;;;13.50;99.90;;;;;;5050486;28;20198;-71
2023/05/20 02:19:36;;;;;;;3.50;3.30;;;13.50;99.90;;;;;;5048000;28;20199;-70
2023/05/20 02:22:03;;;;;;;3.33;3.13;;;13.50;99.90;;;;;;5051638;28;20195;-71
2023/05/20 02:24:30;;;;;;;3.03;2.80;;;13.50;99.90;;;;;;5053510;28;20237;-71
2023/05/20 02:26:57;;;;;;;3.22;3.03;;;13.50;99.90;;;;;;5058245;28;20238;-71
2023/05/20 02:29:26;;;;;;;3.75;3.45;;;13.40;99.90;;;;;;5054352;28;20205;-71
2023/05/20 02:31:53;;;;;;;3.72;3.42;;;13.40;99.90;;;;;;5057900;28;20258;-71
2023/05/20 02:34:20;;;;;;;3.58;3.28;;;13.40;99.90;;;;;;5058027;28;20215;-72
2023/05/20 02:36:47;;;;;;;3.50;3.20;;;13.40;99.90;;;;;;5052872;28;20768;-72
2023/05/20 02:39:15;;;;;;;3.90;3.60;;;13.40;99.90;;;;;;5048129;28;20249;-74
2023/05/20 02:41:42;;;;;;;4.40;4.10;;;13.40;99.90;;;;;;5044543;28;20195;-73
2023/05/20 02:44:09;;;;;;;3.85;3.55;;;13.40;99.90;;;;;;5048084;28;20272;-72
2023/05/20 02:46:37;;;;;;;4.75;4.35;;;13.40;99.90;;;;;;5047691;28;20256;-71
2023/05/20 02:49:04;;;;;;;4.38;4.07;;;13.40;99.90;;;;;;5041629;28;20199;-71
2023/05/20 02:51:32;;;;;;;4.07;3.78;;;13.40;99.90;;;;;;5047741;28;20326;-71
2023/05/20 02:53:59;;;;;;;3.67;3.38;;;13.40;99.90;;;;;;5048629;28;20250;-71
2023/05/20 02:56:26;;;;;;;4.35;3.95;;;13.40;99.90;;;;;;5054917;28;20203;-71
2023/05/20 02:58:53;;;;;;;4.38;3.97;;;13.40;99.90;;;;;;5049963;28;20752;-72
2023/05/20 03:01:20;;;;;;;5.20;4.70;;;13.40;99.90;;;;;;5051119;28;20924;-71
2023/05/20 03:03:48;;;;;;;4.32;4.03;;;13.30;99.90;;;;;;5050190;28;20625;-73
2023/05/20 03:06:15;;;;;;;4.22;3.92;;;13.30;99.90;;;;;;5048102;28;20289;-72
2023/05/20 03:08:42;;;;;;;4.72;4.32;;;13.40;99.90;;;;;;5047678;28;20253;-71
2023/05/20 03:11:09;;;;;;;4.10;3.80;;;13.40;99.90;;;;;;5046551;28;20721;-72
2023/05/20 03:13:36;;;;;;;3.70;3.40;;;13.30;99.90;;;;;;5053145;28;20229;-71
2023/05/20 03:16:03;;;;;;;3.47;3.25;;;13.40;99.90;;;;;;5047823;28;20198;-72
2023/05/20 03:18:30;;;;;;;3.67;3.38;;;13.40;99.90;;;;;;5051759;28;20351;-71
2023/05/20 03:20:58;;;;;;;3.25;3.03;;;13.30;99.90;;;;;;5049277;28;20277;-71
2023/05/20 03:23:26;;;;;;;3.60;3.30;;;13.40;99.90;;;;;;5051213;28;20946;-72
2023/05/20 03:25:53;;;;;;;3.50;3.20;;;13.40;99.90;;;;;;5052425;28;20744;-72
2023/05/20 03:28:19;;;;;;;3.20;3.00;;;13.40;99.90;;;;;;5052878;28;20202;-72
2023/05/20 03:30:46;;;;;;;3.22;2.92;;;13.40;99.90;;;;;;5051933;28;20214;-73
2023/05/20 03:33:14;;;;;;;3.13;2.92;;;13.40;99.90;;;;;;5052651;28;20801;-71
2023/05/20 03:35:41;;;;;;;2.95;2.75;;;13.40;99.90;;;;;;5053505;28;20238;-72
2023/05/20 03:38:10;;;;;;;4.07;3.67;;;13.40;99.90;;;;;;5050302;28;20199;-72
2023/05/20 03:40:36;;;;;;;3.90;3.33;;;13.40;99.90;;;;;;5052834;28;20224;-71
2023/05/20 03:43:03;;;;;;;3.33;3.13;;;13.30;99.90;;;;;;5049370;28;20842;-71
2023/05/20 03:45:32;;;;;;;3.33;3.10;;;13.30;99.90;;;;;;5045894;28;20242;-72
2023/05/20 03:47:59;;;;;;;3.47;3.17;;;13.30;99.90;;;;;;5048640;28;20202;-71
2023/05/20 03:50:26;;;;;;;3.58;3.28;;;13.30;99.90;;;;;;5048488;28;20280;-72
2023/05/20 03:52:53;;;;;;;3.72;3.33;;;13.30;99.90;;;;;;5049292;28;20242;-72
2023/05/20 03:55:21;;;;;;;3.45;3.25;;;13.30;99.90;;;;;;5047352;28;20231;-72
2023/05/20 03:57:48;;;;;;;3.10;2.90;;;13.30;99.90;;;;;;5049828;28;20226;-71
2023/05/20 04:00:16;;;;;;;3.30;3.10;;;13.30;99.90;;;;;;5051998;28;20276;-75
2023/05/20 04:02:43;;;;;;;3.50;3.20;;;13.30;99.90;;;;;;5043539;28;20206;-71
2023/05/20 04:05:10;;;;;;;3.38;3.17;;;13.30;99.90;;;;;;5049101;28;20269;-71
2023/05/20 04:07:37;;;;;;;2.75;2.55;;;13.30;99.90;;;;;;5049824;28;20216;-71
2023/05/20 04:10:05;;;;;;;3.13;2.88;;;13.30;99.90;;;;;;5052722;28;20208;-71
2023/05/20 04:12:35;;;;;;;3.08;2.88;;;13.30;99.90;;;;;;5048965;28;20303;-72
2023/05/20 04:15:02;;;;;;;3.50;3.28;;;13.30;99.90;;;;;;5051391;28;20545;-71
2023/05/20 04:17:29;;;;;;;3.40;3.10;;;13.30;99.90;;;;;;5051437;28;20692;-72
2023/05/20 04:19:58;;;;;;;3.65;3.45;;;13.30;99.90;;;;;;5051113;28;20224;-71
2023/05/20 04:22:25;;;;;;;3.40;3.20;;;13.30;99.90;;;;;;5050432;28;20302;-71
2023/05/20 04:24:52;;;;;;;3.15;2.95;;;13.30;99.90;;;;;;5049969;28;20214;-71
2023/05/20 04:27:20;;;;;;;3.15;2.85;;;13.30;99.90;;;;;;5051036;28;20305;-72
2023/05/20 04:29:48;;;;;;;2.65;2.47;;;13.30;99.90;;;;;;5044953;28;20653;-71
2023/05/20 04:32:19;;;;;;;3.65;3.35;;;13.30;99.90;;;;;;5049699;28;20806;-71
2023/05/20 04:34:46;;;;;;;3.15;2.95;;;13.30;99.90;;;;;;5051980;28;20244;-71
2023/05/20 04:37:14;;;;;;;4.25;3.90;;;13.40;99.90;;;;;;5049049;28;20288;-71
2023/05/20 04:39:42;;;;;;;3.80;3.50;;;13.40;99.90;;;;;;5043059;28;20239;-71
2023/05/20 04:42:09;;;;;;;3.80;3.50;;;13.40;99.90;;;;;;5044957;28;20195;-71
2023/05/20 04:44:36;;;;;;;3.40;3.20;;;13.40;99.90;;;;;;5046935;28;20215;-72
2023/05/20 04:47:06;;;;;;;3.47;3.22;;;13.40;99.90;;;;;;5050993;28;20202;-72
2023/05/20 04:49:33;;;;;;;4.20;3.90;;;13.40;99.90;;;;;;5040163;28;20205;-72
2023/05/20 04:52:00;;;;;;;3.50;3.30;;;13.40;99.90;;;;;;5047162;28;20278;-72
2023/05/20 04:54:27;;;;;;;3.40;3.20;;;13.40;99.90;;;;;;5049748;28;20222;-72
2023/05/20 04:56:54;;;;;;;3.80;3.50;;;13.50;99.90;;;;;;5048236;28;21344;-72
2023/05/20 04:59:21;;;;;;;3.33;3.13;;;13.50;99.90;;;;;;5049583;28;20306;-72
2023/05/20 05:01:48;;;;;;;3.33;3.13;;;13.60;99.90;;;;;;5049431;28;20230;-71
2023/05/20 05:04:16;;;;;;;3.67;3.47;;;13.50;99.90;;;;;;5049351;28;20241;-71
2023/05/20 05:06:43;;;;;;;3.20;3.00;;;13.60;99.90;;;;;;5049383;28;20710;-72
2023/05/20 05:09:10;;;;;;;3.45;3.15;;;13.60;99.90;;;;;;5056159;28;20268;-72
2023/05/20 05:11:38;;;;;;;3.40;3.17;;;13.60;99.90;;;;;;5062135;28;20231;-72
2023/05/20 05:14:04;;;;;;;3.25;3.05;;;13.60;99.90;;;;;;5063291;28;20745;-73
2023/05/20 05:16:31;;;;;;;2.97;2.78;;;13.60;99.90;;;;;;5058829;28;20214;-72
2023/05/20 05:18:58;;;;;;;3.47;3.17;;;13.60;99.90;;;;;;5061194;28;20446;-72
2023/05/20 05:21:27;;;;;;;3.03;2.83;;;13.70;99.90;;;;;;5059859;28;20197;-71
2023/05/20 05:23:53;;;;;;;3.00;2.80;;;13.70;99.90;;;;;;5061600;28;20199;-72
2023/05/20 05:26:21;;;;;;;2.97;2.78;;;13.70;99.90;;;;;;5057516;28;20233;-72
2023/05/20 05:28:48;;;;;;;4.10;3.80;;;13.80;99.90;;;;;;5054741;28;20225;-72
2023/05/20 05:31:14;;;;;;;4.75;4.35;;;13.80;99.90;;;;;;5047448;28;20203;-72
2023/05/20 05:33:41;;;;;;;4.60;4.20;;;13.80;99.90;;;;;;5053217;28;20310;-72
2023/05/20 05:36:08;;;;;;;4.85;4.45;;;13.90;99.90;;;;;;5047833;28;20203;-72
2023/05/20 05:38:38;;;;;;;4.20;3.90;;;13.90;99.90;;;;;;5044235;28;20191;-71
2023/05/20 05:41:05;;;;;;;4.85;4.45;;;13.90;99.90;;;;;;5045587;28;20733;-71
2023/05/20 05:43:32;;;;;;;4.25;3.95;;;14.00;99.90;;;;;;5048069;28;20763;-71
2023/05/20 05:45:59;;;;;;;4.07;3.75;;;14.00;99.90;;;;;;5046078;28;20628;-71
2023/05/20 05:48:26;;;;;;;5.03;4.63;;;14.10;99.90;;;;;;5045093;28;20249;-72
2023/05/20 05:50:53;;;;;;;4.15;3.85;;;14.10;99.90;;;;;;5045212;28;20235;-72
2023/05/20 05:53:20;;;;;;;5.95;5.03;;;14.20;99.90;;;;;;5048535;28;20280;-72
2023/05/20 05:55:48;;;;;;;5.20;4.80;;;14.20;99.90;;;;;;5049296;28;20280;-71
2023/05/20 05:58:16;;;;;;;5.22;4.82;;;14.20;99.90;;;;;;5045639;28;20230;-72
2023/05/20 06:00:43;;;;;;;5.13;4.72;;;14.20;99.90;;;;;;5044044;28;21130;-71
2023/05/20 06:03:10;;;;;;;6.05;5.55;;;14.30;99.90;;;;;;5047963;28;20277;-73
2023/05/20 06:05:37;;;;;;;5.18;4.78;;;14.40;99.90;;;;;;5051413;28;20223;-71
2023/05/20 06:08:05;;;;;;;5.32;4.82;;;14.40;99.90;;;;;;5044576;28;20643;-71
2023/05/20 06:10:32;;;;;;;6.40;5.90;;;14.50;99.90;;;;;;5049485;28;20242;-71
2023/05/20 06:13:00;;;;;;;6.25;5.65;;;14.50;99.90;;;;;;5047711;28;20211;-72
2023/05/20 06:15:27;;;;;;;7.85;7.15;;;14.50;99.90;;;;;;5046772;28;20237;-72
2023/05/20 06:17:54;;;;;;;8.00;6.47;;;14.50;99.90;;;;;;5044769;28;20226;-71
2023/05/20 06:20:21;;;;;;;8.23;7.53;;;14.50;99.90;;;;;;5048866;28;20770;-72
2023/05/20 06:22:48;;;;;;;6.85;6.25;;;14.60;99.90;;;;;;5046220;28;20223;-72
2023/05/20 06:25:15;;;;;;;5.85;5.35;;;14.80;99.90;;;;;;5049771;28;20226;-72
2023/05/20 06:27:42;;;;;;;6.60;5.97;;;14.90;99.90;;;;;;5057624;28;20297;-72
2023/05/20 06:30:11;;;;;;;6.70;6.10;;;15.10;99.90;;;;;;5051197;28;20286;-72
2023/05/20 06:32:38;;;;;;;6.85;6.25;;;15.10;99.90;;;;;;5050373;28;20306;-71
2023/05/20 06:35:07;;;;;;;7.45;6.75;;;15.20;99.90;;;;;;5056277;28;20218;-72
2023/05/20 06:37:34;;;;;;;7.18;6.53;;;15.20;99.90;;;;;;5050231;28;20238;-72
2023/05/20 06:40:01;;;;;;;8.95;7.55;;;15.20;99.90;;;;;;5050882;28;20209;-72
2023/05/20 06:42:28;;;;;;;8.23;7.32;;;15.20;99.90;;;;;;5055287;28;20198;-72
2023/05/20 06:44:54;;;;;;;8.98;8.15;;;15.20;99.90;;;;;;5050484;28;20341;-72
2023/05/20 06:47:23;;;;;;;8.88;7.72;;;15.30;99.90;;;;;;5050046;28;20786;-72
2023/05/20 06:49:50;;;;;;;7.60;6.90;;;15.30;99.90;;;;;;5049306;28;20222;-71
2023/05/20 06:52:17;;;;;;;6.70;5.97;;;15.30;99.90;;;;;;5056948;28;20213;-72
2023/05/20 06:54:43;;;;;;;7.15;6.55;;;15.40;99.90;;;;;;5052395;28;20219;-72
2023/05/20 06:57:11;;;;;;;8.02;7.32;;;15.50;99.90;;;;;;5050940;28;20271;-71
2023/05/20 06:59:38;;;;;;;8.77;7.88;;;15.60;99.90;;;;;;5053471;28;20234;-72
2023/05/20 07:02:06;;;;;;;8.80;7.75;;;15.70;99.90;;;;;;5052173;28;20234;-72
2023/05/20 07:04:34;;;;;;;8.93;7.72;;;15.70;99.90;;;;;;5051689;28;20879;-71
2023/05/20 07:07:01;;;;;;;8.80;7.90;;;15.80;99.90;;;;;;5045174;28;20203;-72
2023/05/20 07:09:28;;;;;;;7.82;7.13;;;16.00;99.90;;;;;;5051164;28;20294;-71
2023/05/20 07:11:55;;;;;;;7.18;6.55;;;16.10;99.90;;;;;;5057547;28;20649;-72
2023/05/20 07:14:22;;;;;;;7.63;6.93;;;16.30;99.90;;;;;;5049641;28;20306;-71
2023/05/20 07:16:49;;;;;;;7.40;6.70;;;16.50;99.90;;;;;;5051302;28;20291;-72
2023/05/20 07:19:16;;;;;;;7.88;7.07;;;16.60;99.90;;;;;;5055068;28;20232;-72
2023/05/20 07:21:44;;;;;;;7.88;7.07;;;16.60;99.90;;;;;;5052060;28;20285;-72
2023/05/20 07:24:11;;;;;;;7.18;6.57;;;16.50;99.90;;;;;;5048513;28;20249;-73
2023/05/20 07:26:38;;;;;;;5.70;5.20;;;16.40;99.90;;;;;;5047194;28;20288;-72
2023/05/20 07:29:05;;;;;;;5.20;4.72;;;16.30;99.90;;;;;;5052922;28;20210;-71
2023/05/20 07:31:32;;;;;;;5.70;5.15;;;16.30;99.90;;;;;;5043086;28;20285;-72
2023/05/20 07:33:59;;;;;;;6.20;5.60;;;16.40;99.90;;;;;;5045791;28;20227;-72
2023/05/20 07:36:27;;;;;;;5.40;4.90;;;16.50;99.90;;;;;;5050249;28;20207;-74
2023/05/20 07:38:55;;;;;;;5.03;4.63;;;16.50;99.90;;;;;;5056101;28;20206;-73
2023/05/20 07:41:22;;;;;;;5.28;4.82;;;16.50;99.90;;;;;;5056872;28;20878;-73
2023/05/20 07:43:50;;;;;;;5.10;4.70;;;16.70;99.90;;;;;;5060572;28;20904;-73
2023/05/20 07:46:18;;;;;;;4.35;3.95;;;16.80;99.90;;;;;;5052644;28;20232;-73
2023/05/20 07:48:45;;;;;;;4.53;4.15;;;17.00;99.90;;;;;;5058793;28;20198;-73
2023/05/20 07:51:12;;;;;;;4.35;3.95;;;17.20;99.90;;;;;;5056428;28;20835;-73
2023/05/20 07:53:39;;;;;;;4.78;4.28;;;17.20;99.90;;;;;;5057587;28;20246;-73
2023/05/20 07:56:07;;;;;;;4.50;4.10;;;17.30;99.90;;;;;;5054698;28;20204;-73
2023/05/20 07:58:34;;;;;;;4.28;3.92;;;17.30;99.90;;;;;;5057164;28;20198;-73
2023/05/20 08:01:02;;;;;;;6.35;4.15;;;17.10;99.90;;;;;;5052498;28;20264;-73
2023/05/20 08:03:29;;;;;;;5.60;5.10;;;17.00;99.90;;;;;;5062997;28;20190;-75
2023/05/20 08:05:55;;;;;;;4.75;4.35;;;17.10;99.90;;;;;;5061507;28;20516;-75
2023/05/20 08:08:24;;;;;;;5.00;4.60;;;17.30;99.90;;;;;;5058531;28;20214;-75
2023/05/20 08:10:51;;;;;;;5.47;4.97;;;17.40;99.90;;;;;;5059306;28;20198;-75
2023/05/20 08:13:20;;;;;;;4.97;4.57;;;17.40;99.90;;;;;;5055718;28;20210;-75
2023/05/20 08:15:48;;;;;;;4.97;4.57;;;17.40;99.90;;;;;;5053489;28;20245;-75
2023/05/20 08:18:15;;;;;;;5.05;4.65;;;17.20;99.90;;;;;;5052595;28;20293;-74
2023/05/20 08:20:42;;;;;;;5.05;4.55;;;17.00;99.90;;;;;;5051504;28;20671;-73
2023/05/20 08:23:09;;;;;;;5.18;4.78;;;16.90;99.90;;;;;;5054300;28;20199;-77
2023/05/20 08:25:37;;;;;;;6.80;4.90;;;16.80;99.90;;;;;;5050029;28;20276;-74
2023/05/20 08:28:05;;;;;;;5.82;5.30;;;16.70;99.90;;;;;;5050757;28;20198;-76
2023/05/20 08:30:34;;;;;;;5.25;4.38;;;16.50;99.90;;;;;;5052672;28;20191;-74
2023/05/20 08:33:01;;;;;;;4.55;4.18;;;16.40;99.90;;;;;;5056163;28;20227;-74
2023/05/20 08:35:28;;;;;;;5.45;4.97;;;16.40;99.90;;;;;;5055781;28;20242;-74
2023/05/20 08:37:55;;;;;;;4.22;3.90;;;16.30;99.90;;;;;;5047981;28;20222;-73
2023/05/20 08:40:22;;;;;;;4.72;4.30;;;16.20;99.90;;;;;;5049735;28;20297;-74
2023/05/20 08:42:51;;;;;;;5.20;4.35;;;16.20;99.90;;;;;;5054116;28;20195;-75
2023/05/20 08:45:25;;;;;;;4.20;3.90;;;16.10;99.90;;;;;;5055315;28;20222;-78
2023/05/20 08:47:54;;;;;;;4.13;3.83;;;16.00;99.90;;;;;;5052540;28;20207;-75
2023/05/20 08:50:21;;;;;;;3.63;3.33;;;16.00;99.90;;;;;;5057586;28;20689;-75
2023/05/20 08:52:48;;;;;;;4.05;3.65;;;16.10;99.90;;;;;;5057762;28;20901;-76
2023/05/20 08:55:21;;;;;;;3.58;3.28;;;16.20;99.90;;;;;;5056141;28;21623;-75
2023/05/20 08:57:50;;;;;;;4.32;3.90;;;16.20;99.90;;;;;;5054515;28;20199;-74
2023/05/20 09:00:18;;;;;;;3.47;3.17;;;16.20;99.90;;;;;;5051964;28;20211;-73
2023/05/20 09:02:46;;;;;;;4.63;4.30;;;16.10;99.90;;;;;;5057608;28;20206;-74
2023/05/20 09:05:14;;;;;;;4.15;3.85;;;16.00;99.90;;;;;;5055232;28;20227;-74
2023/05/20 09:07:42;;;;;;;3.53;3.33;;;16.10;99.90;;;;;;5058497;28;20685;-74
2023/05/20 09:10:10;;;;;;;3.90;3.60;;;16.10;99.90;;;;;;5056042;28;20295;-74
2023/05/20 09:12:38;;;;;;;3.50;3.20;;;16.00;99.90;;;;;;5050409;28;20202;-73
2023/05/20 09:15:06;;;;;;;4.22;3.83;;;16.00;99.90;;;;;;5053419;28;20219;-73
2023/05/20 09:17:35;;;;;;;3.92;3.63;;;16.00;99.90;;;;;;5050006;28;20202;-73
2023/05/20 09:20:03;;;;;;;4.28;3.88;;;16.00;99.90;;;;;;5051654;28;20233;-73
2023/05/20 09:22:31;;;;;;;7.00;4.72;;;16.00;99.90;;;;;;5052672;28;20226;-74
2023/05/20 09:24:58;;;;;;;6.55;5.78;;;15.90;99.90;;;;;;5051815;28;20222;-74
2023/05/20 09:27:25;;;;;;;4.03;3.67;;;15.90;99.90;;;;;;5051778;28;20195;-74
2023/05/20 09:29:52;;;;;;;4.50;4.10;;;15.90;99.90;;;;;;5048881;28;20211;-74
2023/05/20 09:32:22;;;;;;;4.07;3.67;;;15.90;99.90;;;;;;5051149;28;20199;-73
2023/05/20 09:34:50;;;;;;;5.35;4.85;;;15.90;99.90;;;;;;5051058;28;20413;-73
2023/05/20 09:37:19;;;;;;;5.78;4.60;;;15.80;99.90;;;;;;5052776;28;20530;-74
2023/05/20 09:39:56;;;;;;;6.20;5.70;;;15.80;99.90;;;;;;5051206;28;20340;-73
2023/05/20 09:42:27;;;;;;;5.57;4.95;;;15.80;99.90;;;;;;5056248;28;20202;-73
2023/05/20 09:44:56;;;;;;;4.10;3.80;;;15.80;99.90;;;;;;5049948;28;20222;-73
2023/05/20 09:47:24;;;;;;;4.68;4.28;;;15.90;99.90;;;;;;5052363;28;20194;-73
2023/05/20 09:49:52;;;;;;;4.53;4.13;;;16.10;99.90;;;;;;5050100;28;20297;-76
2023/05/20 09:52:20;;;;;;;4.30;3.90;;;16.20;99.90;;;;;;5061892;28;20214;-75
2023/05/20 09:54:50;;;;;;;4.22;3.92;;;16.40;99.90;;;;;;5061505;28;20226;-75
2023/05/20 09:57:17;;;;;;;4.55;4.15;;;16.40;99.90;;;;;;5059326;28;20261;-75
2023/05/20 09:59:46;;;;;;;4.28;3.88;;;16.40;99.90;;;;;;5058331;28;20191;-75
2023/05/20 10:02:14;;;;;;;4.45;4.05;;;16.30;99.90;;;;;;5060355;28;20451;-75
2023/05/20 10:04:48;;;;;;;4.70;4.30;;;16.30;99.90;;;;;;5057910;28;20214;-75
2023/05/20 10:07:50;;;;;;;4.72;4.32;;;16.20;99.90;;;;;;5059873;28;20221;-75
2023/05/20 10:10:29;;;;;;;5.38;4.97;;;16.20;99.90;;;;;;5059884;28;20257;-75
2023/05/20 10:13:19;;;;;;;4.88;4.47;;;16.30;99.90;;;;;;5057448;28;20195;-76
2023/05/20 10:15:55;;;;;;;4.50;4.10;;;16.30;99.90;;;;;;5057122;28;20238;-75
2023/05/20 10:18:43;;;;;;;3.90;3.60;;;16.30;99.90;;;;;;5055554;28;20262;-75
2023/05/20 10:21:17;;;;;;;4.70;4.30;;;16.30;99.90;;;;;;5054231;28;20198;-75
2023/05/20 10:23:44;;;;;;;4.53;4.18;;;16.30;99.90;;;;;;5054709;28;20728;-75
2023/05/20 10:26:13;;;;;;;4.40;4.10;;;16.30;99.90;;;;;;5053069;28;20214;-75
2023/05/20 10:28:41;;;;;;;4.57;4.15;;;16.30;99.90;;;;;;5050128;28;20195;-76
2023/05/20 10:31:20;;;;;;;4.03;3.72;;;16.30;99.90;;;;;;5054109;28;20202;-75
2023/05/20 10:33:48;;;;;;;5.20;4.80;;;16.40;99.90;;;;;;5055993;28;20218;-75
2023/05/20 10:36:26;;;;;;;4.05;3.75;;;16.50;99.90;;;;;;5048958;28;20203;-76
2023/05/20 10:38:54;;;;;;;4.38;4.05;;;16.50;99.90;;;;;;5050835;28;20202;-75
2023/05/20 10:41:25;;;;;;;4.03;3.72;;;16.60;99.90;;;;;;5053998;28;20210;-75
2023/05/20 10:44:02;;;;;;;3.83;3.53;;;16.50;99.90;;;;;;5052039;28;20191;-75
2023/05/20 10:46:29;;;;;;;5.20;4.78;;;16.60;99.90;;;;;;5052204;28;20270;-74
2023/05/20 10:48:56;;;;;;;5.15;4.75;;;16.50;99.90;;;;;;5055284;28;20203;-75
2023/05/20 10:51:24;;;;;;;4.63;4.32;;;16.50;99.90;;;;;;5053076;28;20204;-75
2023/05/20 10:53:54;;;;;;;4.75;4.40;;;16.60;99.90;;;;;;5056885;28;20233;-74
2023/05/20 10:56:24;;;;;;;4.60;4.30;;;16.60;99.90;;;;;;5052716;28;20259;-75
2023/05/20 10:58:53;;;;;;;7.07;5.20;;;16.60;99.90;;;;;;5053624;28;20196;-75
2023/05/20 11:01:24;;;;;;;4.90;4.50;;;16.60;99.90;;;;;;5058640;28;20225;-75
2023/05/20 11:03:52;;;;;;;4.95;4.55;;;16.60;99.90;;;;;;5055170;28;20628;-75
2023/05/20 11:06:20;;;;;;;6.32;4.90;;;16.60;99.90;;;;;;5054567;28;20219;-75
2023/05/20 11:08:47;;;;;;;5.50;5.00;;;16.60;99.90;;;;;;5053619;28;20242;-76
2023/05/20 11:11:15;;;;;;;5.93;5.43;;;16.60;99.90;;;;;;5052779;28;20203;-76
2023/05/20 11:13:43;;;;;;;6.18;5.40;;;16.60;99.90;;;;;;5060451;28;20223;-75
2023/05/20 11:16:10;;;;;;;6.78;6.18;;;16.60;99.90;;;;;;5054856;28;20191;-76
2023/05/20 11:18:37;;;;;;;6.07;5.57;;;16.50;99.90;;;;;;5061389;28;20206;-75
2023/05/20 11:21:04;;;;;;;7.53;6.82;;;16.50;99.90;;;;;;5059897;28;20202;-76
2023/05/20 11:23:31;;;;;;;6.70;6.10;;;16.50;99.90;;;;;;5062801;28;20282;-75
2023/05/20 11:25:58;;;;;;;5.85;5.35;;;16.50;99.90;;;;;;5055136;28;20661;-75
2023/05/20 11:28:26;;;;;;;6.40;5.88;;;16.40;99.90;;;;;;5057686;28;20214;-76
2023/05/20 11:30:56;;;;;;;6.13;5.60;;;16.40;99.90;;;;;;5054707;28;20206;-75
2023/05/20 11:33:26;;;;;;;6.82;6.22;;;16.30;99.90;;;;;;5055236;28;20199;-75
2023/05/20 11:35:53;;;;;;;6.95;6.28;;;16.20;99.90;;;;;;5058061;28;20226;-75
2023/05/20 11:38:21;;;;;;;5.78;5.28;;;16.10;99.90;;;;;;5055588;28;20230;-75
2023/05/20 11:40:52;;;;;;;4.95;4.55;;;16.00;99.90;;;;;;5057437;28;20278;-76
2023/05/20 11:43:20;;;;;;;5.25;4.85;;;16.00;99.90;;;;;;5057746;28;20199;-75
2023/05/20 11:45:52;;;;;;;5.25;4.85;;;16.00;99.90;;;;;;5058348;28;20732;-74
2023/05/20 11:48:20;;;;;;;4.30;4.00;;;15.90;99.90;;;;;;5055937;28;20226;-75
2023/05/20 11:50:48;;;;;;;4.70;4.30;;;16.00;99.90;;;;;;5056306;28;20257;-75
2023/05/20 11:53:16;;;;;;;3.92;3.63;;;16.00;99.90;;;;;;5057854;28;20207;-75
2023/05/20 11:55:48;;;;;;;4.95;4.07;;;16.10;99.90;;;;;;5053945;28;20612;-75
2023/05/20 11:58:20;;;;;;;4.13;3.80;;;16.10;99.90;;;;;;5051519;28;20695;-75
2023/05/20 12:00:47;;;;;;;3.65;3.42;;;16.20;99.90;;;;;;5051304;28;20230;-75
2023/05/20 12:03:15;;;;;;;3.70;3.40;;;16.30;99.90;;;;;;5051410;28;20203;-75
2023/05/20 12:05:43;;;;;;;4.22;3.88;;;16.40;99.90;;;;;;5046401;28;20268;-76
2023/05/20 12:08:10;;;;;;;3.40;3.20;;;16.40;99.90;;;;;;5052931;28;20248;-75
2023/05/20 12:10:37;;;;;;;3.92;3.63;;;16.50;99.90;;;;;;5046853;28;20207;-75
2023/05/20 12:13:07;;;;;;;3.38;3.17;;;16.50;99.90;;;;;;5050593;28;20686;-75
2023/05/20 12:15:34;;;;;;;3.78;3.47;;;16.60;99.90;;;;;;5042463;28;20219;-75
2023/05/20 12:18:01;;;;;;;3.97;3.67;;;16.70;99.90;;;;;;5046430;28;20202;-75
2023/05/20 12:20:29;;;;;;;4.05;3.75;;;16.80;99.90;;;;;;5046027;28;20207;-73
2023/05/20 12:22:58;;;;;;;3.90;3.53;;;16.90;99.90;;;;;;5046296;28;20693;-75
2023/05/20 12:25:25;;;;;;;3.92;3.63;;;17.00;99.90;;;;;;5046723;28;20758;-74
2023/05/20 12:27:52;;;;;;;4.25;3.95;;;17.10;99.90;;;;;;5048153;28;20615;-75
2023/05/20 12:30:21;;;;;;;4.35;3.95;;;17.20;99.90;;;;;;5044672;28;20250;-73
2023/05/20 12:32:50;;;;;;;5.45;5.00;;;17.20;99.90;;;;;;5045103;28;20230;-74
2023/05/20 12:35:17;;;;;;;4.47;4.07;;;17.10;99.90;;;;;;5047262;28;20884;-75
2023/05/20 12:37:44;;;;;;;4.30;3.90;;;17.00;99.90;;;;;;5046186;28;22452;-74
2023/05/20 12:40:13;;;;;;;4.22;3.88;;;16.90;99.90;;;;;;5046402;28;20262;-75
2023/05/20 12:42:41;;;;;;;4.70;4.30;;;16.80;99.90;;;;;;5045157;28;20237;-74
2023/05/20 12:45:09;;;;;;;5.18;4.68;;;16.70;99.90;;;;;;5047166;28;20211;-75
2023/05/20 12:47:36;;;;;;;4.60;4.18;;;16.70;99.90;;;;;;5050408;28;20219;-75
2023/05/20 12:50:04;;;;;;;4.72;4.30;;;16.70;99.90;;;;;;5049014;28;20265;-75
2023/05/20 12:52:31;;;;;;;4.40;4.10;;;16.70;99.90;;;;;;5048540;28;20225;-75